sensor_id;sensor_type;location;lat;lon;timestamp;P1;durP1;ratioP1;P2;durP2;ratioP2
12681;SDS011;6405;59.208;18.216;2023-05-10T00:01:55;6.37;;;4.20;;
12681;SDS011;6405;59.208;18.216;2023-05-10T00:04:21;8.60;;;4.60;;
12681;SDS011;6405;59.208;18.216;2023-05-10T00:06:47;8.90;;;4.83;;
12681;SDS011;6405;59.208;18.216;2023-05-10T00:09:13;7.97;;;4.40;;
12681;SDS011;6405;59.208;18.216;2023-05-10T00:11:39;8.27;;;5.03;;
12681;SDS011;6405;59.208;18.216;2023-05-10T00:14:04;7.13;;;4.83;;
12681;SDS011;6405;59.208;18.216;2023-05-10T00:16:30;7.10;;;5.00;;
12681;SDS011;6405;59.208;18.216;2023-05-10T00:18:56;6.43;;;4.60;;
12681;SDS011;6405;59.208;18.216;2023-05-10T00:21:21;5.63;;;4.60;;
12681;SDS011;6405;59.208;18.216;2023-05-10T00:23:47;9.27;;;4.90;;
12681;SDS011;6405;59.208;18.216;2023-05-10T00:26:13;8.43;;;4.80;;
12681;SDS011;6405;59.208;18.216;2023-05-10T00:28:38;6.00;;;4.80;;
12681;SDS011;6405;59.208;18.216;2023-05-10T00:31:04;7.67;;;4.30;;
12681;SDS011;6405;59.208;18.216;2023-05-10T00:33:30;7.23;;;4.30;;
12681;SDS011;6405;59.208;18.216;2023-05-10T00:35:55;6.20;;;4.30;;
12681;SDS011;6405;59.208;18.216;2023-05-10T00:38:21;7.80;;;4.33;;
12681;SDS011;6405;59.208;18.216;2023-05-10T00:40:46;8.07;;;4.37;;
12681;SDS011;6405;59.208;18.216;2023-05-10T00:43:12;7.27;;;4.43;;
12681;SDS011;6405;59.208;18.216;2023-05-10T00:45:38;5.83;;;4.40;;
12681;SDS011;6405;59.208;18.216;2023-05-10T00:48:05;7.77;;;4.53;;
12681;SDS011;6405;59.208;18.216;2023-05-10T00:50:31;8.23;;;4.60;;
12681;SDS011;6405;59.208;18.216;2023-05-10T00:52:59;6.90;;;4.77;;
12681;SDS011;6405;59.208;18.216;2023-05-10T00:55:25;5.97;;;5.07;;
12681;SDS011;6405;59.208;18.216;2023-05-10T00:57:52;6.77;;;4.90;;
12681;SDS011;6405;59.208;18.216;2023-05-10T01:00:18;8.33;;;5.87;;
12681;SDS011;6405;59.208;18.216;2023-05-10T01:02:45;6.43;;;5.00;;
12681;SDS011;6405;59.208;18.216;2023-05-10T01:05:11;9.60;;;5.00;;
12681;SDS011;6405;59.208;18.216;2023-05-10T01:07:37;6.67;;;4.80;;
12681;SDS011;6405;59.208;18.216;2023-05-10T01:10:02;6.40;;;5.10;;
12681;SDS011;6405;59.208;18.216;2023-05-10T01:12:29;7.10;;;4.87;;
12681;SDS011;6405;59.208;18.216;2023-05-10T01:14:55;8.30;;;5.33;;
12681;SDS011;6405;59.208;18.216;2023-05-10T01:17:21;7.93;;;4.57;;
12681;SDS011;6405;59.208;18.216;2023-05-10T01:19:47;5.70;;;4.53;;
12681;SDS011;6405;59.208;18.216;2023-05-10T01:25:22;6.40;;;4.40;;
12681;SDS011;6405;59.208;18.216;2023-05-10T01:33:33;8.20;;;5.17;;
12681;SDS011;6405;59.208;18.216;2023-05-10T01:36:19;6.57;;;5.10;;
12681;SDS011;6405;59.208;18.216;2023-05-10T01:39:01;8.47;;;4.50;;
12681;SDS011;6405;59.208;18.216;2023-05-10T01:41:36;8.93;;;5.40;;
12681;SDS011;6405;59.208;18.216;2023-05-10T01:47:17;9.70;;;5.23;;
12681;SDS011;6405;59.208;18.216;2023-05-10T01:49:50;7.77;;;5.30;;
12681;SDS011;6405;59.208;18.216;2023-05-10T01:52:19;8.63;;;4.70;;
12681;SDS011;6405;59.208;18.216;2023-05-10T01:54:58;11.33;;;5.13;;
12681;SDS011;6405;59.208;18.216;2023-05-10T01:57:27;6.83;;;5.40;;
12681;SDS011;6405;59.208;18.216;2023-05-10T02:00:04;8.07;;;4.90;;
12681;SDS011;6405;59.208;18.216;2023-05-10T02:02:33;7.00;;;4.87;;
12681;SDS011;6405;59.208;18.216;2023-05-10T02:05:07;9.77;;;5.20;;
12681;SDS011;6405;59.208;18.216;2023-05-10T02:07:34;8.43;;;5.10;;
12681;SDS011;6405;59.208;18.216;2023-05-10T02:10:02;7.83;;;5.07;;
12681;SDS011;6405;59.208;18.216;2023-05-10T02:12:31;8.27;;;5.30;;
12681;SDS011;6405;59.208;18.216;2023-05-10T02:15:00;7.00;;;5.60;;
12681;SDS011;6405;59.208;18.216;2023-05-10T02:17:29;7.80;;;5.40;;
12681;SDS011;6405;59.208;18.216;2023-05-10T02:19:57;8.87;;;5.50;;
12681;SDS011;6405;59.208;18.216;2023-05-10T02:22:25;8.70;;;5.10;;
12681;SDS011;6405;59.208;18.216;2023-05-10T02:24:53;8.87;;;5.17;;
12681;SDS011;6405;59.208;18.216;2023-05-10T02:27:23;8.73;;;5.43;;
12681;SDS011;6405;59.208;18.216;2023-05-10T02:29:51;14.07;;;6.30;;
12681;SDS011;6405;59.208;18.216;2023-05-10T02:32:17;8.67;;;5.30;;
12681;SDS011;6405;59.208;18.216;2023-05-10T02:34:44;7.03;;;5.90;;
12681;SDS011;6405;59.208;18.216;2023-05-10T02:37:14;6.67;;;5.00;;
12681;SDS011;6405;59.208;18.216;2023-05-10T02:39:41;7.83;;;5.97;;
12681;SDS011;6405;59.208;18.216;2023-05-10T02:42:16;6.70;;;5.50;;
12681;SDS011;6405;59.208;18.216;2023-05-10T02:44:45;9.77;;;5.90;;
12681;SDS011;6405;59.208;18.216;2023-05-10T02:47:14;8.17;;;5.57;;
12681;SDS011;6405;59.208;18.216;2023-05-10T02:49:40;7.00;;;5.50;;
12681;SDS011;6405;59.208;18.216;2023-05-10T02:52:06;7.30;;;5.60;;
12681;SDS011;6405;59.208;18.216;2023-05-10T02:54:36;7.17;;;5.50;;
12681;SDS011;6405;59.208;18.216;2023-05-10T02:57:16;9.27;;;6.00;;
12681;SDS011;6405;59.208;18.216;2023-05-10T02:59:45;7.27;;;4.77;;
12681;SDS011;6405;59.208;18.216;2023-05-10T03:02:12;7.13;;;5.10;;
12681;SDS011;6405;59.208;18.216;2023-05-10T03:04:38;7.37;;;5.63;;
12681;SDS011;6405;59.208;18.216;2023-05-10T03:07:04;6.87;;;5.40;;
12681;SDS011;6405;59.208;18.216;2023-05-10T03:09:30;7.57;;;5.73;;
12681;SDS011;6405;59.208;18.216;2023-05-10T03:12:00;14.33;;;5.60;;
12681;SDS011;6405;59.208;18.216;2023-05-10T03:15:00;10.90;;;6.00;;
12681;SDS011;6405;59.208;18.216;2023-05-10T03:17:42;7.03;;;5.80;;
12681;SDS011;6405;59.208;18.216;2023-05-10T03:20:16;9.27;;;6.27;;
12681;SDS011;6405;59.208;18.216;2023-05-10T03:22:55;8.97;;;5.43;;
12681;SDS011;6405;59.208;18.216;2023-05-10T03:25:25;6.17;;;5.03;;
12681;SDS011;6405;59.208;18.216;2023-05-10T03:27:51;9.57;;;5.80;;
12681;SDS011;6405;59.208;18.216;2023-05-10T03:30:17;7.47;;;5.90;;
12681;SDS011;6405;59.208;18.216;2023-05-10T03:32:44;8.87;;;6.43;;
12681;SDS011;6405;59.208;18.216;2023-05-10T03:35:11;9.37;;;6.33;;
12681;SDS011;6405;59.208;18.216;2023-05-10T03:37:38;8.47;;;5.60;;
12681;SDS011;6405;59.208;18.216;2023-05-10T03:40:04;8.77;;;5.80;;
12681;SDS011;6405;59.208;18.216;2023-05-10T03:42:30;9.10;;;6.03;;
12681;SDS011;6405;59.208;18.216;2023-05-10T03:44:56;7.73;;;6.10;;
12681;SDS011;6405;59.208;18.216;2023-05-10T03:47:22;14.30;;;6.70;;
12681;SDS011;6405;59.208;18.216;2023-05-10T03:49:47;8.57;;;6.40;;
12681;SDS011;6405;59.208;18.216;2023-05-10T03:52:13;10.90;;;6.63;;
12681;SDS011;6405;59.208;18.216;2023-05-10T03:54:39;12.87;;;6.97;;
12681;SDS011;6405;59.208;18.216;2023-05-10T03:57:04;11.60;;;6.90;;
12681;SDS011;6405;59.208;18.216;2023-05-10T03:59:30;10.27;;;6.93;;
12681;SDS011;6405;59.208;18.216;2023-05-10T04:01:56;10.43;;;7.97;;
12681;SDS011;6405;59.208;18.216;2023-05-10T04:04:21;11.57;;;7.40;;
12681;SDS011;6405;59.208;18.216;2023-05-10T04:06:48;11.03;;;7.53;;
12681;SDS011;6405;59.208;18.216;2023-05-10T04:09:13;9.87;;;7.60;;
12681;SDS011;6405;59.208;18.216;2023-05-10T04:11:39;15.37;;;8.10;;
12681;SDS011;6405;59.208;18.216;2023-05-10T04:14:05;14.67;;;8.77;;
12681;SDS011;6405;59.208;18.216;2023-05-10T04:16:31;15.83;;;9.50;;
12681;SDS011;6405;59.208;18.216;2023-05-10T04:18:56;18.77;;;9.40;;
12681;SDS011;6405;59.208;18.216;2023-05-10T04:21:22;15.43;;;10.13;;
12681;SDS011;6405;59.208;18.216;2023-05-10T04:23:48;13.07;;;8.97;;
12681;SDS011;6405;59.208;18.216;2023-05-10T04:26:13;13.93;;;9.00;;
12681;SDS011;6405;59.208;18.216;2023-05-10T04:28:39;11.80;;;8.17;;
12681;SDS011;6405;59.208;18.216;2023-05-10T04:31:06;13.37;;;7.53;;
12681;SDS011;6405;59.208;18.216;2023-05-10T04:33:33;11.70;;;7.70;;
12681;SDS011;6405;59.208;18.216;2023-05-10T04:36:00;10.93;;;8.33;;
12681;SDS011;6405;59.208;18.216;2023-05-10T04:38:26;9.63;;;7.53;;
12681;SDS011;6405;59.208;18.216;2023-05-10T04:40:52;12.83;;;8.13;;
12681;SDS011;6405;59.208;18.216;2023-05-10T04:43:18;13.77;;;7.13;;
12681;SDS011;6405;59.208;18.216;2023-05-10T04:45:44;10.27;;;7.47;;
12681;SDS011;6405;59.208;18.216;2023-05-10T04:48:10;10.40;;;6.80;;
12681;SDS011;6405;59.208;18.216;2023-05-10T04:50:36;10.53;;;6.97;;
12681;SDS011;6405;59.208;18.216;2023-05-10T04:53:01;9.33;;;5.70;;
12681;SDS011;6405;59.208;18.216;2023-05-10T04:55:27;8.30;;;6.40;;
12681;SDS011;6405;59.208;18.216;2023-05-10T04:57:53;9.87;;;6.10;;
12681;SDS011;6405;59.208;18.216;2023-05-10T05:00:21;9.50;;;6.30;;
12681;SDS011;6405;59.208;18.216;2023-05-10T05:02:47;8.50;;;6.00;;
12681;SDS011;6405;59.208;18.216;2023-05-10T05:05:13;7.67;;;5.67;;
12681;SDS011;6405;59.208;18.216;2023-05-10T05:07:38;7.27;;;5.97;;
12681;SDS011;6405;59.208;18.216;2023-05-10T05:10:05;9.93;;;5.57;;
12681;SDS011;6405;59.208;18.216;2023-05-10T05:12:32;6.53;;;5.07;;
12681;SDS011;6405;59.208;18.216;2023-05-10T05:14:57;9.43;;;5.50;;
12681;SDS011;6405;59.208;18.216;2023-05-10T05:17:23;6.20;;;5.37;;
12681;SDS011;6405;59.208;18.216;2023-05-10T05:19:49;5.53;;;4.77;;
12681;SDS011;6405;59.208;18.216;2023-05-10T05:22:14;6.73;;;4.73;;
12681;SDS011;6405;59.208;18.216;2023-05-10T05:24:40;5.93;;;4.70;;
12681;SDS011;6405;59.208;18.216;2023-05-10T05:27:06;7.07;;;5.20;;
12681;SDS011;6405;59.208;18.216;2023-05-10T05:29:32;6.00;;;4.73;;
12681;SDS011;6405;59.208;18.216;2023-05-10T05:31:57;7.13;;;4.70;;
12681;SDS011;6405;59.208;18.216;2023-05-10T05:34:23;6.70;;;4.20;;
12681;SDS011;6405;59.208;18.216;2023-05-10T05:36:49;10.60;;;5.47;;
12681;SDS011;6405;59.208;18.216;2023-05-10T05:39:15;7.43;;;4.63;;
12681;SDS011;6405;59.208;18.216;2023-05-10T05:41:40;7.40;;;4.43;;
12681;SDS011;6405;59.208;18.216;2023-05-10T05:44:06;6.60;;;4.53;;
12681;SDS011;6405;59.208;18.216;2023-05-10T05:46:32;10.67;;;4.60;;
12681;SDS011;6405;59.208;18.216;2023-05-10T05:48:57;9.43;;;4.33;;
12681;SDS011;6405;59.208;18.216;2023-05-10T05:51:23;5.77;;;4.50;;
12681;SDS011;6405;59.208;18.216;2023-05-10T05:53:49;6.53;;;3.97;;
12681;SDS011;6405;59.208;18.216;2023-05-10T05:56:14;9.53;;;4.47;;
12681;SDS011;6405;59.208;18.216;2023-05-10T05:58:40;6.00;;;4.03;;
12681;SDS011;6405;59.208;18.216;2023-05-10T06:01:06;4.30;;;3.90;;
12681;SDS011;6405;59.208;18.216;2023-05-10T06:03:32;5.60;;;3.93;;
12681;SDS011;6405;59.208;18.216;2023-05-10T06:05:58;7.77;;;4.23;;
12681;SDS011;6405;59.208;18.216;2023-05-10T06:08:23;5.90;;;4.23;;
12681;SDS011;6405;59.208;18.216;2023-05-10T06:10:49;6.57;;;3.77;;
12681;SDS011;6405;59.208;18.216;2023-05-10T06:13:15;5.73;;;4.00;;
12681;SDS011;6405;59.208;18.216;2023-05-10T06:15:40;6.77;;;4.13;;
12681;SDS011;6405;59.208;18.216;2023-05-10T06:18:06;5.47;;;3.63;;
12681;SDS011;6405;59.208;18.216;2023-05-10T06:20:32;6.33;;;3.57;;
12681;SDS011;6405;59.208;18.216;2023-05-10T06:22:57;7.53;;;3.97;;
12681;SDS011;6405;59.208;18.216;2023-05-10T06:25:23;6.80;;;4.30;;
12681;SDS011;6405;59.208;18.216;2023-05-10T06:27:49;5.77;;;3.80;;
12681;SDS011;6405;59.208;18.216;2023-05-10T06:30:15;9.33;;;3.43;;
12681;SDS011;6405;59.208;18.216;2023-05-10T06:32:41;6.83;;;3.40;;
12681;SDS011;6405;59.208;18.216;2023-05-10T06:35:09;7.63;;;3.80;;
12681;SDS011;6405;59.208;18.216;2023-05-10T06:37:34;8.27;;;4.17;;
12681;SDS011;6405;59.208;18.216;2023-05-10T06:40:00;5.87;;;3.73;;
12681;SDS011;6405;59.208;18.216;2023-05-10T06:42:27;4.00;;;3.60;;
12681;SDS011;6405;59.208;18.216;2023-05-10T06:44:52;7.13;;;3.60;;
12681;SDS011;6405;59.208;18.216;2023-05-10T06:47:18;4.83;;;3.53;;
12681;SDS011;6405;59.208;18.216;2023-05-10T06:49:44;4.43;;;3.33;;
12681;SDS011;6405;59.208;18.216;2023-05-10T06:52:09;5.80;;;3.40;;
12681;SDS011;6405;59.208;18.216;2023-05-10T06:54:35;4.70;;;3.43;;
12681;SDS011;6405;59.208;18.216;2023-05-10T06:57:01;4.97;;;3.30;;
12681;SDS011;6405;59.208;18.216;2023-05-10T06:59:28;6.53;;;3.70;;
12681;SDS011;6405;59.208;18.216;2023-05-10T07:01:54;7.40;;;3.73;;
12681;SDS011;6405;59.208;18.216;2023-05-10T07:04:19;4.20;;;3.20;;
12681;SDS011;6405;59.208;18.216;2023-05-10T07:06:45;7.47;;;3.50;;
12681;SDS011;6405;59.208;18.216;2023-05-10T07:09:11;3.97;;;3.23;;
12681;SDS011;6405;59.208;18.216;2023-05-10T07:11:38;6.40;;;3.73;;
12681;SDS011;6405;59.208;18.216;2023-05-10T07:14:04;5.30;;;3.63;;
12681;SDS011;6405;59.208;18.216;2023-05-10T07:16:30;7.37;;;4.33;;
12681;SDS011;6405;59.208;18.216;2023-05-10T07:18:55;6.57;;;3.50;;
12681;SDS011;6405;59.208;18.216;2023-05-10T07:21:21;6.87;;;3.47;;
12681;SDS011;6405;59.208;18.216;2023-05-10T07:23:49;5.73;;;3.20;;
12681;SDS011;6405;59.208;18.216;2023-05-10T07:26:15;5.60;;;3.53;;
12681;SDS011;6405;59.208;18.216;2023-05-10T07:28:41;4.07;;;3.20;;
12681;SDS011;6405;59.208;18.216;2023-05-10T07:31:07;4.10;;;3.70;;
12681;SDS011;6405;59.208;18.216;2023-05-10T07:33:32;4.20;;;3.40;;
12681;SDS011;6405;59.208;18.216;2023-05-10T07:35:58;6.47;;;3.30;;
12681;SDS011;6405;59.208;18.216;2023-05-10T07:38:24;5.87;;;3.57;;
12681;SDS011;6405;59.208;18.216;2023-05-10T07:40:49;5.83;;;3.50;;
12681;SDS011;6405;59.208;18.216;2023-05-10T07:43:15;4.53;;;3.30;;
12681;SDS011;6405;59.208;18.216;2023-05-10T07:45:41;5.70;;;3.20;;
12681;SDS011;6405;59.208;18.216;2023-05-10T07:48:06;6.17;;;3.27;;
12681;SDS011;6405;59.208;18.216;2023-05-10T07:50:32;7.90;;;3.90;;
12681;SDS011;6405;59.208;18.216;2023-05-10T07:52:58;5.07;;;3.13;;
12681;SDS011;6405;59.208;18.216;2023-05-10T07:55:23;7.93;;;2.87;;
12681;SDS011;6405;59.208;18.216;2023-05-10T07:57:49;5.47;;;2.77;;
12681;SDS011;6405;59.208;18.216;2023-05-10T08:00:18;3.77;;;3.13;;
12681;SDS011;6405;59.208;18.216;2023-05-10T08:02:45;6.17;;;3.07;;
12681;SDS011;6405;59.208;18.216;2023-05-10T08:05:11;4.00;;;3.60;;
12681;SDS011;6405;59.208;18.216;2023-05-10T08:07:37;5.27;;;3.50;;
12681;SDS011;6405;59.208;18.216;2023-05-10T08:10:03;4.20;;;3.40;;
12681;SDS011;6405;59.208;18.216;2023-05-10T08:12:29;3.77;;;3.00;;
12681;SDS011;6405;59.208;18.216;2023-05-10T08:14:55;4.00;;;3.10;;
12681;SDS011;6405;59.208;18.216;2023-05-10T08:17:21;5.53;;;3.40;;
12681;SDS011;6405;59.208;18.216;2023-05-10T08:19:46;4.40;;;3.17;;
12681;SDS011;6405;59.208;18.216;2023-05-10T08:22:12;5.30;;;3.10;;
12681;SDS011;6405;59.208;18.216;2023-05-10T08:24:38;3.30;;;2.93;;
12681;SDS011;6405;59.208;18.216;2023-05-10T08:27:07;3.90;;;3.50;;
12681;SDS011;6405;59.208;18.216;2023-05-10T08:29:33;5.43;;;2.77;;
12681;SDS011;6405;59.208;18.216;2023-05-10T08:31:59;6.13;;;2.97;;
12681;SDS011;6405;59.208;18.216;2023-05-10T08:34:26;4.33;;;3.47;;
12681;SDS011;6405;59.208;18.216;2023-05-10T08:36:52;7.50;;;3.40;;
12681;SDS011;6405;59.208;18.216;2023-05-10T08:39:17;6.23;;;3.30;;
12681;SDS011;6405;59.208;18.216;2023-05-10T08:41:43;4.80;;;3.67;;
12681;SDS011;6405;59.208;18.216;2023-05-10T08:44:10;4.70;;;3.50;;
12681;SDS011;6405;59.208;18.216;2023-05-10T08:46:36;4.30;;;3.27;;
12681;SDS011;6405;59.208;18.216;2023-05-10T08:49:04;7.63;;;2.80;;
12681;SDS011;6405;59.208;18.216;2023-05-10T08:51:36;3.97;;;2.70;;
12681;SDS011;6405;59.208;18.216;2023-05-10T08:54:03;5.73;;;3.17;;
12681;SDS011;6405;59.208;18.216;2023-05-10T08:56:29;6.17;;;2.83;;
12681;SDS011;6405;59.208;18.216;2023-05-10T08:58:55;4.83;;;3.00;;
12681;SDS011;6405;59.208;18.216;2023-05-10T09:01:22;4.47;;;2.50;;
12681;SDS011;6405;59.208;18.216;2023-05-10T09:03:48;4.40;;;2.80;;
12681;SDS011;6405;59.208;18.216;2023-05-10T09:06:14;4.87;;;3.17;;
12681;SDS011;6405;59.208;18.216;2023-05-10T09:08:41;3.50;;;3.00;;
12681;SDS011;6405;59.208;18.216;2023-05-10T09:11:08;3.70;;;3.00;;
12681;SDS011;6405;59.208;18.216;2023-05-10T09:13:35;4.70;;;3.00;;
12681;SDS011;6405;59.208;18.216;2023-05-10T09:16:02;4.63;;;2.43;;
12681;SDS011;6405;59.208;18.216;2023-05-10T09:18:28;4.83;;;3.00;;
12681;SDS011;6405;59.208;18.216;2023-05-10T09:20:54;5.90;;;2.83;;
12681;SDS011;6405;59.208;18.216;2023-05-10T09:23:20;6.80;;;2.60;;
12681;SDS011;6405;59.208;18.216;2023-05-10T09:25:45;4.07;;;3.03;;
12681;SDS011;6405;59.208;18.216;2023-05-10T09:28:12;4.17;;;2.93;;
12681;SDS011;6405;59.208;18.216;2023-05-10T09:30:37;4.63;;;3.00;;
12681;SDS011;6405;59.208;18.216;2023-05-10T09:33:04;3.60;;;2.90;;
12681;SDS011;6405;59.208;18.216;2023-05-10T09:35:30;3.30;;;2.77;;
12681;SDS011;6405;59.208;18.216;2023-05-10T09:37:57;4.13;;;2.83;;
12681;SDS011;6405;59.208;18.216;2023-05-10T09:40:26;5.80;;;2.60;;
12681;SDS011;6405;59.208;18.216;2023-05-10T09:45:23;3.70;;;2.90;;
12681;SDS011;6405;59.208;18.216;2023-05-10T09:47:49;5.00;;;3.23;;
12681;SDS011;6405;59.208;18.216;2023-05-10T09:50:15;4.43;;;3.20;;
12681;SDS011;6405;59.208;18.216;2023-05-10T09:52:51;4.00;;;2.70;;
12681;SDS011;6405;59.208;18.216;2023-05-10T09:55:23;3.17;;;2.70;;
12681;SDS011;6405;59.208;18.216;2023-05-10T09:58:00;7.00;;;2.73;;
12681;SDS011;6405;59.208;18.216;2023-05-10T10:00:27;5.83;;;3.07;;
12681;SDS011;6405;59.208;18.216;2023-05-10T10:02:56;4.90;;;2.80;;
12681;SDS011;6405;59.208;18.216;2023-05-10T10:05:29;4.13;;;2.67;;
12681;SDS011;6405;59.208;18.216;2023-05-10T10:07:59;6.17;;;2.70;;
12681;SDS011;6405;59.208;18.216;2023-05-10T10:10:26;3.47;;;2.77;;
12681;SDS011;6405;59.208;18.216;2023-05-10T10:12:53;4.70;;;2.67;;
12681;SDS011;6405;59.208;18.216;2023-05-10T10:15:23;3.70;;;2.90;;
12681;SDS011;6405;59.208;18.216;2023-05-10T10:17:49;3.10;;;2.80;;
12681;SDS011;6405;59.208;18.216;2023-05-10T10:20:16;3.73;;;2.63;;
12681;SDS011;6405;59.208;18.216;2023-05-10T10:22:42;6.57;;;2.57;;
12681;SDS011;6405;59.208;18.216;2023-05-10T10:25:10;7.10;;;2.37;;
12681;SDS011;6405;59.208;18.216;2023-05-10T10:27:44;3.43;;;2.50;;
12681;SDS011;6405;59.208;18.216;2023-05-10T10:33:30;4.53;;;2.70;;
12681;SDS011;6405;59.208;18.216;2023-05-10T10:36:17;2.87;;;2.47;;
12681;SDS011;6405;59.208;18.216;2023-05-10T10:41:30;3.30;;;2.80;;
12681;SDS011;6405;59.208;18.216;2023-05-10T10:47:01;4.60;;;3.07;;
12681;SDS011;6405;59.208;18.216;2023-05-10T10:52:24;4.07;;;2.50;;
12681;SDS011;6405;59.208;18.216;2023-05-10T10:55:04;4.33;;;2.63;;
12681;SDS011;6405;59.208;18.216;2023-05-10T11:00:18;3.10;;;2.53;;
12681;SDS011;6405;59.208;18.216;2023-05-10T11:05:25;5.73;;;2.70;;
12681;SDS011;6405;59.208;18.216;2023-05-10T11:10:34;6.23;;;2.50;;
12681;SDS011;6405;59.208;18.216;2023-05-10T11:13:04;3.40;;;2.60;;
12681;SDS011;6405;59.208;18.216;2023-05-10T11:15:37;3.90;;;2.70;;
12681;SDS011;6405;59.208;18.216;2023-05-10T11:18:16;3.17;;;2.70;;
12681;SDS011;6405;59.208;18.216;2023-05-10T11:20:43;3.60;;;3.07;;
12681;SDS011;6405;59.208;18.216;2023-05-10T11:23:12;5.57;;;3.00;;
12681;SDS011;6405;59.208;18.216;2023-05-10T11:25:44;4.83;;;2.90;;
12681;SDS011;6405;59.208;18.216;2023-05-10T11:28:10;4.57;;;2.97;;
12681;SDS011;6405;59.208;18.216;2023-05-10T11:30:41;5.93;;;2.63;;
12681;SDS011;6405;59.208;18.216;2023-05-10T11:33:08;2.70;;;2.30;;
12681;SDS011;6405;59.208;18.216;2023-05-10T11:35:38;5.50;;;2.50;;
12681;SDS011;6405;59.208;18.216;2023-05-10T11:38:08;2.73;;;2.50;;
12681;SDS011;6405;59.208;18.216;2023-05-10T11:40:35;3.67;;;2.77;;
12681;SDS011;6405;59.208;18.216;2023-05-10T11:43:01;6.07;;;2.60;;
12681;SDS011;6405;59.208;18.216;2023-05-10T11:45:28;5.07;;;2.67;;
12681;SDS011;6405;59.208;18.216;2023-05-10T11:47:56;4.70;;;2.60;;
12681;SDS011;6405;59.208;18.216;2023-05-10T11:50:23;5.13;;;2.60;;
12681;SDS011;6405;59.208;18.216;2023-05-10T11:52:52;3.00;;;2.37;;
12681;SDS011;6405;59.208;18.216;2023-05-10T11:55:19;4.67;;;2.40;;
12681;SDS011;6405;59.208;18.216;2023-05-10T11:57:45;3.60;;;2.63;;
12681;SDS011;6405;59.208;18.216;2023-05-10T12:00:12;4.43;;;2.50;;
12681;SDS011;6405;59.208;18.216;2023-05-10T12:02:38;2.87;;;2.50;;
12681;SDS011;6405;59.208;18.216;2023-05-10T12:05:04;5.27;;;2.60;;
12681;SDS011;6405;59.208;18.216;2023-05-10T12:07:31;3.13;;;2.63;;
12681;SDS011;6405;59.208;18.216;2023-05-10T12:10:06;5.23;;;2.50;;
12681;SDS011;6405;59.208;18.216;2023-05-10T12:12:43;4.87;;;2.37;;
12681;SDS011;6405;59.208;18.216;2023-05-10T12:15:10;3.53;;;2.33;;
12681;SDS011;6405;59.208;18.216;2023-05-10T12:17:37;6.67;;;2.23;;
12681;SDS011;6405;59.208;18.216;2023-05-10T12:20:14;7.63;;;3.00;;
12681;SDS011;6405;59.208;18.216;2023-05-10T12:22:46;4.07;;;2.63;;
12681;SDS011;6405;59.208;18.216;2023-05-10T12:25:11;4.00;;;2.30;;
12681;SDS011;6405;59.208;18.216;2023-05-10T12:27:37;4.83;;;2.70;;
12681;SDS011;6405;59.208;18.216;2023-05-10T12:30:03;3.43;;;2.40;;
12681;SDS011;6405;59.208;18.216;2023-05-10T12:32:38;2.70;;;2.40;;
12681;SDS011;6405;59.208;18.216;2023-05-10T12:35:05;5.70;;;2.40;;
12681;SDS011;6405;59.208;18.216;2023-05-10T12:37:32;5.33;;;2.70;;
12681;SDS011;6405;59.208;18.216;2023-05-10T12:40:00;4.63;;;2.60;;
12681;SDS011;6405;59.208;18.216;2023-05-10T12:42:27;5.33;;;2.60;;
12681;SDS011;6405;59.208;18.216;2023-05-10T12:44:56;3.90;;;2.50;;
12681;SDS011;6405;59.208;18.216;2023-05-10T12:47:22;3.57;;;2.57;;
12681;SDS011;6405;59.208;18.216;2023-05-10T12:49:48;4.67;;;2.60;;
12681;SDS011;6405;59.208;18.216;2023-05-10T12:52:13;3.93;;;2.30;;
12681;SDS011;6405;59.208;18.216;2023-05-10T12:54:39;4.37;;;2.40;;
12681;SDS011;6405;59.208;18.216;2023-05-10T12:57:05;5.07;;;2.60;;
12681;SDS011;6405;59.208;18.216;2023-05-10T12:59:30;4.83;;;3.10;;
12681;SDS011;6405;59.208;18.216;2023-05-10T13:01:56;3.97;;;2.57;;
12681;SDS011;6405;59.208;18.216;2023-05-10T13:04:22;3.03;;;2.37;;
12681;SDS011;6405;59.208;18.216;2023-05-10T13:06:48;4.23;;;2.23;;
12681;SDS011;6405;59.208;18.216;2023-05-10T13:09:14;3.60;;;2.60;;
12681;SDS011;6405;59.208;18.216;2023-05-10T13:11:40;4.60;;;2.40;;
12681;SDS011;6405;59.208;18.216;2023-05-10T13:14:06;3.73;;;2.77;;
12681;SDS011;6405;59.208;18.216;2023-05-10T13:16:32;4.50;;;2.30;;
12681;SDS011;6405;59.208;18.216;2023-05-10T13:18:57;4.33;;;2.37;;
12681;SDS011;6405;59.208;18.216;2023-05-10T13:21:23;3.83;;;2.70;;
12681;SDS011;6405;59.208;18.216;2023-05-10T13:23:50;3.70;;;2.67;;
12681;SDS011;6405;59.208;18.216;2023-05-10T13:26:15;3.57;;;3.03;;
12681;SDS011;6405;59.208;18.216;2023-05-10T13:28:41;4.83;;;2.37;;
12681;SDS011;6405;59.208;18.216;2023-05-10T13:31:07;4.27;;;2.53;;
12681;SDS011;6405;59.208;18.216;2023-05-10T13:33:33;4.43;;;2.27;;
12681;SDS011;6405;59.208;18.216;2023-05-10T13:35:58;2.60;;;2.40;;
12681;SDS011;6405;59.208;18.216;2023-05-10T13:38:24;3.23;;;2.40;;
12681;SDS011;6405;59.208;18.216;2023-05-10T13:40:49;6.07;;;2.40;;
12681;SDS011;6405;59.208;18.216;2023-05-10T13:43:18;4.03;;;2.50;;
12681;SDS011;6405;59.208;18.216;2023-05-10T13:45:43;4.80;;;2.57;;
12681;SDS011;6405;59.208;18.216;2023-05-10T13:48:09;5.10;;;2.53;;
12681;SDS011;6405;59.208;18.216;2023-05-10T13:50:35;5.47;;;2.77;;
12681;SDS011;6405;59.208;18.216;2023-05-10T13:53:00;4.10;;;2.07;;
12681;SDS011;6405;59.208;18.216;2023-05-10T13:55:26;3.57;;;2.50;;
12681;SDS011;6405;59.208;18.216;2023-05-10T13:57:52;4.27;;;3.07;;
12681;SDS011;6405;59.208;18.216;2023-05-10T14:00:17;3.97;;;2.13;;
12681;SDS011;6405;59.208;18.216;2023-05-10T14:02:43;2.63;;;2.13;;
12681;SDS011;6405;59.208;18.216;2023-05-10T14:05:09;3.77;;;2.17;;
12681;SDS011;6405;59.208;18.216;2023-05-10T14:07:34;3.97;;;2.50;;
12681;SDS011;6405;59.208;18.216;2023-05-10T14:10:00;4.13;;;2.10;;
12681;SDS011;6405;59.208;18.216;2023-05-10T14:12:26;3.47;;;2.33;;
12681;SDS011;6405;59.208;18.216;2023-05-10T14:14:52;2.80;;;2.10;;
12681;SDS011;6405;59.208;18.216;2023-05-10T14:17:18;3.97;;;2.20;;
12681;SDS011;6405;59.208;18.216;2023-05-10T14:19:44;5.50;;;2.63;;
12681;SDS011;6405;59.208;18.216;2023-05-10T14:22:09;2.10;;;1.90;;
12681;SDS011;6405;59.208;18.216;2023-05-10T14:24:35;5.03;;;2.20;;
12681;SDS011;6405;59.208;18.216;2023-05-10T14:27:01;4.93;;;1.90;;
12681;SDS011;6405;59.208;18.216;2023-05-10T14:29:26;3.77;;;1.93;;
12681;SDS011;6405;59.208;18.216;2023-05-10T14:31:52;2.50;;;2.00;;
12681;SDS011;6405;59.208;18.216;2023-05-10T14:34:18;2.40;;;2.20;;
12681;SDS011;6405;59.208;18.216;2023-05-10T14:36:43;3.63;;;2.27;;
12681;SDS011;6405;59.208;18.216;2023-05-10T14:39:09;3.00;;;2.17;;
12681;SDS011;6405;59.208;18.216;2023-05-10T14:41:37;2.50;;;2.10;;
12681;SDS011;6405;59.208;18.216;2023-05-10T14:44:05;4.77;;;2.10;;
12681;SDS011;6405;59.208;18.216;2023-05-10T14:46:31;3.27;;;2.30;;
12681;SDS011;6405;59.208;18.216;2023-05-10T14:48:57;3.93;;;2.20;;
12681;SDS011;6405;59.208;18.216;2023-05-10T14:51:22;3.23;;;2.07;;
12681;SDS011;6405;59.208;18.216;2023-05-10T14:53:48;2.10;;;1.90;;
12681;SDS011;6405;59.208;18.216;2023-05-10T14:56:16;3.20;;;2.00;;
12681;SDS011;6405;59.208;18.216;2023-05-10T14:58:42;2.70;;;2.03;;
12681;SDS011;6405;59.208;18.216;2023-05-10T15:01:08;2.87;;;2.10;;
12681;SDS011;6405;59.208;18.216;2023-05-10T15:03:33;2.80;;;1.93;;
12681;SDS011;6405;59.208;18.216;2023-05-10T15:05:59;2.80;;;2.53;;
12681;SDS011;6405;59.208;18.216;2023-05-10T15:08:25;2.50;;;2.20;;
12681;SDS011;6405;59.208;18.216;2023-05-10T15:10:51;4.23;;;2.47;;
12681;SDS011;6405;59.208;18.216;2023-05-10T15:13:16;3.13;;;2.20;;
12681;SDS011;6405;59.208;18.216;2023-05-10T15:15:43;2.67;;;2.07;;
12681;SDS011;6405;59.208;18.216;2023-05-10T15:18:09;3.20;;;2.30;;
12681;SDS011;6405;59.208;18.216;2023-05-10T15:20:35;2.80;;;2.37;;